createdAt,value
2023-03-23T16:02:38.052Z,15.58
2023-03-23T16:07:39.599Z,15.60
2023-03-23T16:12:41.175Z,15.73
2023-03-23T16:17:42.974Z,15.55
2023-03-23T16:22:44.469Z,15.61
2023-03-23T16:27:51.691Z,15.49
2023-03-23T16:32:55.508Z,15.46
2023-03-23T16:38:07.249Z,15.41
2023-03-23T16:43:10.797Z,15.39
2023-03-23T16:48:13.587Z,15.42
2023-03-23T16:53:16.188Z,15.39
2023-03-23T16:58:18.316Z,15.40
2023-03-23T17:03:21.051Z,15.32
2023-03-23T17:08:22.492Z,15.37
2023-03-23T17:13:25.630Z,15.54
2023-03-23T17:18:28.973Z,15.34
2023-03-23T17:23:30.679Z,15.19
2023-03-23T17:28:32.279Z,15.12
2023-03-23T17:33:33.866Z,15.13
2023-03-23T17:38:35.595Z,15.03
2023-03-23T17:43:39.353Z,14.90
2023-03-23T17:48:41.321Z,14.87
2023-03-23T17:53:42.738Z,14.76
2023-03-23T17:58:44.377Z,14.73
2023-03-23T18:03:46.228Z,14.60
2023-03-23T18:08:47.676Z,14.48
2023-03-23T18:13:49.078Z,14.44
2023-03-23T18:18:50.535Z,14.41
2023-03-23T18:23:59.161Z,14.16
2023-03-23T18:29:01.616Z,14.27
2023-03-23T18:34:02.999Z,14.35
2023-03-23T18:39:05.634Z,14.29
2023-03-23T18:44:07.306Z,14.25
2023-03-23T18:49:08.739Z,14.18
2023-03-23T18:54:10.158Z,14.16
2023-03-23T18:59:11.612Z,14.25
2023-03-23T19:04:13.516Z,14.26
2023-03-23T19:09:15.455Z,14.31
2023-03-23T19:14:18.089Z,14.38
2023-03-23T19:19:19.992Z,14.28
2023-03-23T19:24:21.509Z,14.20
2023-03-23T19:29:26.976Z,14.15
2023-03-23T19:34:30.099Z,14.17
2023-03-23T19:39:31.678Z,14.11
2023-03-23T19:44:34.280Z,14.03
2023-03-23T19:49:36.098Z,14.08
2023-03-23T19:54:38.376Z,14.21
2023-03-23T19:59:39.836Z,14.29
2023-03-23T20:04:41.571Z,14.23
2023-03-23T20:09:43.111Z,14.35
2023-03-23T20:14:45.413Z,14.26
2023-03-23T20:19:46.988Z,14.25
2023-03-23T20:24:49.426Z,14.39
2023-03-23T20:29:52.231Z,14.39
2023-03-23T20:34:53.654Z,14.35
2023-03-23T20:39:55.321Z,14.37
2023-03-23T20:44:57.056Z,14.39
2023-03-23T20:49:58.620Z,14.51
2023-03-23T20:55:00.837Z,14.43
2023-03-23T21:00:06.391Z,14.27
2023-03-23T21:05:08.948Z,14.23
2023-03-23T21:10:10.518Z,14.19
2023-03-23T21:15:12.091Z,14.33
2023-03-23T21:20:13.703Z,14.37
2023-03-23T21:25:15.215Z,14.35
2023-03-23T21:30:16.661Z,14.38
2023-03-23T21:35:18.018Z,14.31
2023-03-23T21:40:20.504Z,14.23
2023-03-23T21:45:21.940Z,14.36
2023-03-23T21:50:24.306Z,14.23
2023-03-23T21:55:30.895Z,14.17
2023-03-23T22:00:36.818Z,14.02
2023-03-23T22:05:47.222Z,13.98
2023-03-23T22:11:07.425Z,13.85
2023-03-23T22:16:18.654Z,13.69
2023-03-23T22:21:26.708Z,13.62
2023-03-23T22:26:32.244Z,13.58
2023-03-23T22:31:40.873Z,13.59
2023-03-23T22:36:49.743Z,13.47
2023-03-23T22:41:55.872Z,13.37
2023-03-23T22:47:02.049Z,13.25
2023-03-23T22:52:17.544Z,13.17
2023-03-23T22:57:21.162Z,13.31
2023-03-23T23:02:27.260Z,13.21
2023-03-23T23:07:33.364Z,13.16
2023-03-23T23:12:41.536Z,13.19
2023-03-23T23:17:44.631Z,13.24
2023-03-23T23:22:50.512Z,13.05
2023-03-23T23:27:52.346Z,13.20
2023-03-23T23:32:54.089Z,13.17
2023-03-23T23:37:55.826Z,13.29
2023-03-23T23:42:59.001Z,13.22
2023-03-23T23:48:00.508Z,13.28
2023-03-23T23:53:01.961Z,13.14
2023-03-23T23:58:04.654Z,13.16
